sensor_id;sensor_type;location;lat;lon;timestamp;pressure;altitude;pressure_sealevel;temperature
20058;BMP180;10189;49.546;7.906;2023-03-05T00:01:14;98530.00;;;6.10
20058;BMP180;10189;49.546;7.906;2023-03-05T00:03:40;98539.00;;;6.10
20058;BMP180;10189;49.546;7.906;2023-03-05T00:06:06;98530.00;;;6.00
20058;BMP180;10189;49.546;7.906;2023-03-05T00:08:33;98536.00;;;6.00
20058;BMP180;10189;49.546;7.906;2023-03-05T00:11:11;98526.00;;;6.00
20058;BMP180;10189;49.546;7.906;2023-03-05T00:13:38;98526.00;;;6.00
20058;BMP180;10189;49.546;7.906;2023-03-05T00:16:13;98538.00;;;6.00
20058;BMP180;10189;49.546;7.906;2023-03-05T00:18:40;98531.00;;;5.90
20058;BMP180;10189;49.546;7.906;2023-03-05T00:23:54;98539.00;;;5.80
20058;BMP180;10189;49.546;7.906;2023-03-05T00:26:24;98544.00;;;5.90
20058;BMP180;10189;49.546;7.906;2023-03-05T00:28:51;98544.00;;;5.90
20058;BMP180;10189;49.546;7.906;2023-03-05T00:31:20;98537.00;;;5.80
20058;BMP180;10189;49.546;7.906;2023-03-05T00:33:53;98539.00;;;5.90
20058;BMP180;10189;49.546;7.906;2023-03-05T00:36:19;98530.00;;;5.80
20058;BMP180;10189;49.546;7.906;2023-03-05T00:38:45;98519.00;;;5.90
20058;BMP180;10189;49.546;7.906;2023-03-05T00:41:11;98524.00;;;5.90
20058;BMP180;10189;49.546;7.906;2023-03-05T00:43:37;98515.00;;;5.90
20058;BMP180;10189;49.546;7.906;2023-03-05T00:46:04;98513.00;;;5.90
20058;BMP180;10189;49.546;7.906;2023-03-05T00:48:30;98507.00;;;5.90
20058;BMP180;10189;49.546;7.906;2023-03-05T00:50:55;98505.00;;;5.90
20058;BMP180;10189;49.546;7.906;2023-03-05T00:53:22;98499.00;;;5.90
20058;BMP180;10189;49.546;7.906;2023-03-05T00:55:50;98495.00;;;5.80
20058;BMP180;10189;49.546;7.906;2023-03-05T00:58:15;98497.00;;;5.90
20058;BMP180;10189;49.546;7.906;2023-03-05T01:00:41;98500.00;;;5.90
20058;BMP180;10189;49.546;7.906;2023-03-05T01:03:08;98487.00;;;5.90
20058;BMP180;10189;49.546;7.906;2023-03-05T01:05:34;98487.00;;;5.90
20058;BMP180;10189;49.546;7.906;2023-03-05T01:08:00;98482.00;;;6.00
20058;BMP180;10189;49.546;7.906;2023-03-05T01:10:26;98482.00;;;6.00
20058;BMP180;10189;49.546;7.906;2023-03-05T01:12:54;98484.00;;;5.90
20058;BMP180;10189;49.546;7.906;2023-03-05T01:15:21;98478.00;;;6.00
20058;BMP180;10189;49.546;7.906;2023-03-05T01:17:47;98484.00;;;6.00
20058;BMP180;10189;49.546;7.906;2023-03-05T01:20:17;98476.00;;;6.00
20058;BMP180;10189;49.546;7.906;2023-03-05T01:22:44;98481.00;;;6.00
20058;BMP180;10189;49.546;7.906;2023-03-05T01:25:12;98475.00;;;6.00
20058;BMP180;10189;49.546;7.906;2023-03-05T01:27:38;98472.00;;;6.10
20058;BMP180;10189;49.546;7.906;2023-03-05T01:30:05;98466.00;;;6.10
20058;BMP180;10189;49.546;7.906;2023-03-05T01:32:34;98467.00;;;6.00
20058;BMP180;10189;49.546;7.906;2023-03-05T01:35:02;98463.00;;;6.10
20058;BMP180;10189;49.546;7.906;2023-03-05T01:37:29;98469.00;;;6.10
20058;BMP180;10189;49.546;7.906;2023-03-05T01:39:55;98467.00;;;6.10
20058;BMP180;10189;49.546;7.906;2023-03-05T01:42:21;98463.00;;;6.00
20058;BMP180;10189;49.546;7.906;2023-03-05T01:45:07;98460.00;;;6.00
20058;BMP180;10189;49.546;7.906;2023-03-05T01:47:35;98468.00;;;6.00
20058;BMP180;10189;49.546;7.906;2023-03-05T01:50:03;98466.00;;;6.00
20058;BMP180;10189;49.546;7.906;2023-03-05T01:52:34;98464.00;;;6.10
20058;BMP180;10189;49.546;7.906;2023-03-05T01:55:17;98464.00;;;6.00
20058;BMP180;10189;49.546;7.906;2023-03-05T01:58:02;98458.00;;;6.00
20058;BMP180;10189;49.546;7.906;2023-03-05T02:00:43;98461.00;;;6.00
20058;BMP180;10189;49.546;7.906;2023-03-05T02:03:12;98446.00;;;6.00
20058;BMP180;10189;49.546;7.906;2023-03-05T02:05:41;98450.00;;;6.00
20058;BMP180;10189;49.546;7.906;2023-03-05T02:08:19;98444.00;;;6.00
20058;BMP180;10189;49.546;7.906;2023-03-05T02:10:49;98445.00;;;6.00
20058;BMP180;10189;49.546;7.906;2023-03-05T02:13:22;98440.00;;;6.00
20058;BMP180;10189;49.546;7.906;2023-03-05T02:15:50;98441.00;;;6.00
20058;BMP180;10189;49.546;7.906;2023-03-05T02:18:18;98446.00;;;6.00
20058;BMP180;10189;49.546;7.906;2023-03-05T02:23:25;98439.00;;;6.00
20058;BMP180;10189;49.546;7.906;2023-03-05T02:25:52;98428.00;;;6.00
20058;BMP180;10189;49.546;7.906;2023-03-05T02:28:34;98417.00;;;6.00
20058;BMP180;10189;49.546;7.906;2023-03-05T02:31:19;98422.00;;;6.00
20058;BMP180;10189;49.546;7.906;2023-03-05T02:33:46;98421.00;;;6.10
20058;BMP180;10189;49.546;7.906;2023-03-05T02:36:13;98417.00;;;6.10
20058;BMP180;10189;49.546;7.906;2023-03-05T02:38:41;98411.00;;;6.10
20058;BMP180;10189;49.546;7.906;2023-03-05T02:41:08;98414.00;;;6.10
20058;BMP180;10189;49.546;7.906;2023-03-05T02:43:35;98409.00;;;6.00
20058;BMP180;10189;49.546;7.906;2023-03-05T02:46:02;98412.00;;;6.00
20058;BMP180;10189;49.546;7.906;2023-03-05T02:48:28;98404.00;;;6.00
20058;BMP180;10189;49.546;7.906;2023-03-05T02:50:55;98404.00;;;6.00
20058;BMP180;10189;49.546;7.906;2023-03-05T02:53:21;98394.00;;;6.00
20058;BMP180;10189;49.546;7.906;2023-03-05T02:55:49;98400.00;;;6.00
20058;BMP180;10189;49.546;7.906;2023-03-05T02:58:16;98395.00;;;6.00
20058;BMP180;10189;49.546;7.906;2023-03-05T03:00:43;98398.00;;;6.00
20058;BMP180;10189;49.546;7.906;2023-03-05T03:03:09;98392.00;;;6.10
20058;BMP180;10189;49.546;7.906;2023-03-05T03:05:35;98385.00;;;6.00
20058;BMP180;10189;49.546;7.906;2023-03-05T03:08:02;98395.00;;;6.00
20058;BMP180;10189;49.546;7.906;2023-03-05T03:10:28;98385.00;;;6.10
20058;BMP180;10189;49.546;7.906;2023-03-05T03:12:54;98384.00;;;6.10
20058;BMP180;10189;49.546;7.906;2023-03-05T03:15:20;98382.00;;;6.00
20058;BMP180;10189;49.546;7.906;2023-03-05T03:17:46;98382.00;;;6.10
20058;BMP180;10189;49.546;7.906;2023-03-05T03:20:15;98373.00;;;6.10
20058;BMP180;10189;49.546;7.906;2023-03-05T03:22:44;98374.00;;;6.00
20058;BMP180;10189;49.546;7.906;2023-03-05T03:25:15;98372.00;;;6.00
20058;BMP180;10189;49.546;7.906;2023-03-05T03:27:42;98366.00;;;6.00
20058;BMP180;10189;49.546;7.906;2023-03-05T03:30:09;98369.00;;;6.00
20058;BMP180;10189;49.546;7.906;2023-03-05T03:32:34;98367.00;;;6.00
20058;BMP180;10189;49.546;7.906;2023-03-05T03:35:01;98357.00;;;6.00
20058;BMP180;10189;49.546;7.906;2023-03-05T03:37:28;98355.00;;;6.00
20058;BMP180;10189;49.546;7.906;2023-03-05T03:39:55;98361.00;;;6.00
20058;BMP180;10189;49.546;7.906;2023-03-05T03:42:22;98358.00;;;6.00
20058;BMP180;10189;49.546;7.906;2023-03-05T03:44:48;98356.00;;;6.00
20058;BMP180;10189;49.546;7.906;2023-03-05T03:47:15;98351.00;;;6.00
20058;BMP180;10189;49.546;7.906;2023-03-05T03:49:41;98350.00;;;6.10
20058;BMP180;10189;49.546;7.906;2023-03-05T03:52:07;98344.00;;;6.10
20058;BMP180;10189;49.546;7.906;2023-03-05T03:54:33;98346.00;;;6.00
20058;BMP180;10189;49.546;7.906;2023-03-05T03:56:59;98349.00;;;5.90
20058;BMP180;10189;49.546;7.906;2023-03-05T03:59:25;98342.00;;;5.90
20058;BMP180;10189;49.546;7.906;2023-03-05T04:01:51;98349.00;;;6.00
20058;BMP180;10189;49.546;7.906;2023-03-05T04:04:17;98343.00;;;6.00
20058;BMP180;10189;49.546;7.906;2023-03-05T04:06:43;98335.00;;;5.90
20058;BMP180;10189;49.546;7.906;2023-03-05T04:09:09;98341.00;;;6.00
20058;BMP180;10189;49.546;7.906;2023-03-05T04:11:36;98339.00;;;6.00
20058;BMP180;10189;49.546;7.906;2023-03-05T04:14:03;98344.00;;;5.90
20058;BMP180;10189;49.546;7.906;2023-03-05T04:16:29;98343.00;;;5.80
20058;BMP180;10189;49.546;7.906;2023-03-05T04:18:55;98354.00;;;5.90
20058;BMP180;10189;49.546;7.906;2023-03-05T04:21:21;98341.00;;;5.90
20058;BMP180;10189;49.546;7.906;2023-03-05T04:23:46;98338.00;;;5.80
20058;BMP180;10189;49.546;7.906;2023-03-05T04:26:12;98343.00;;;5.80
20058;BMP180;10189;49.546;7.906;2023-03-05T04:28:38;98348.00;;;5.80
20058;BMP180;10189;49.546;7.906;2023-03-05T04:31:04;98344.00;;;5.80
20058;BMP180;10189;49.546;7.906;2023-03-05T04:33:30;98338.00;;;5.80
20058;BMP180;10189;49.546;7.906;2023-03-05T04:35:56;98335.00;;;5.80
20058;BMP180;10189;49.546;7.906;2023-03-05T04:38:22;98335.00;;;5.80
20058;BMP180;10189;49.546;7.906;2023-03-05T04:40:48;98339.00;;;5.80
20058;BMP180;10189;49.546;7.906;2023-03-05T04:43:14;98338.00;;;5.80
20058;BMP180;10189;49.546;7.906;2023-03-05T04:45:42;98338.00;;;5.80
20058;BMP180;10189;49.546;7.906;2023-03-05T04:48:10;98335.00;;;5.80
20058;BMP180;10189;49.546;7.906;2023-03-05T04:50:37;98345.00;;;5.80
20058;BMP180;10189;49.546;7.906;2023-03-05T04:53:03;98335.00;;;5.80
20058;BMP180;10189;49.546;7.906;2023-03-05T04:55:29;98325.00;;;5.80
20058;BMP180;10189;49.546;7.906;2023-03-05T04:57:55;98330.00;;;5.80
20058;BMP180;10189;49.546;7.906;2023-03-05T05:00:21;98334.00;;;5.80
20058;BMP180;10189;49.546;7.906;2023-03-05T05:02:49;98334.00;;;5.70
20058;BMP180;10189;49.546;7.906;2023-03-05T05:05:22;98333.00;;;5.80
20058;BMP180;10189;49.546;7.906;2023-03-05T05:07:49;98313.00;;;5.80
20058;BMP180;10189;49.546;7.906;2023-03-05T05:10:16;98322.00;;;5.70
20058;BMP180;10189;49.546;7.906;2023-03-05T05:12:42;98316.00;;;5.70
20058;BMP180;10189;49.546;7.906;2023-03-05T05:15:10;98317.00;;;5.70
20058;BMP180;10189;49.546;7.906;2023-03-05T05:17:36;98319.00;;;5.60
20058;BMP180;10189;49.546;7.906;2023-03-05T05:20:03;98315.00;;;5.70
20058;BMP180;10189;49.546;7.906;2023-03-05T05:22:32;98319.00;;;5.70
20058;BMP180;10189;49.546;7.906;2023-03-05T05:24:58;98322.00;;;5.60
20058;BMP180;10189;49.546;7.906;2023-03-05T05:27:24;98310.00;;;5.60
20058;BMP180;10189;49.546;7.906;2023-03-05T05:29:49;98314.00;;;5.60
20058;BMP180;10189;49.546;7.906;2023-03-05T05:32:19;98310.00;;;5.60
20058;BMP180;10189;49.546;7.906;2023-03-05T05:34:45;98310.00;;;5.60
20058;BMP180;10189;49.546;7.906;2023-03-05T05:37:11;98314.00;;;5.60
20058;BMP180;10189;49.546;7.906;2023-03-05T05:39:38;98313.00;;;5.60
20058;BMP180;10189;49.546;7.906;2023-03-05T05:42:04;98313.00;;;5.50
20058;BMP180;10189;49.546;7.906;2023-03-05T05:44:30;98306.00;;;5.60
20058;BMP180;10189;49.546;7.906;2023-03-05T05:46:58;98308.00;;;5.60
20058;BMP180;10189;49.546;7.906;2023-03-05T05:49:23;98309.00;;;5.60
20058;BMP180;10189;49.546;7.906;2023-03-05T05:51:49;98310.00;;;5.50
20058;BMP180;10189;49.546;7.906;2023-03-05T05:54:15;98314.00;;;5.50
20058;BMP180;10189;49.546;7.906;2023-03-05T05:56:41;98309.00;;;5.50
20058;BMP180;10189;49.546;7.906;2023-03-05T05:59:09;98302.00;;;5.50
20058;BMP180;10189;49.546;7.906;2023-03-05T06:01:35;98306.00;;;5.50
20058;BMP180;10189;49.546;7.906;2023-03-05T06:04:01;98306.00;;;5.50
20058;BMP180;10189;49.546;7.906;2023-03-05T06:06:28;98296.00;;;5.50
20058;BMP180;10189;49.546;7.906;2023-03-05T06:08:54;98299.00;;;5.50
20058;BMP180;10189;49.546;7.906;2023-03-05T06:11:21;98285.00;;;5.50
20058;BMP180;10189;49.546;7.906;2023-03-05T06:13:48;98287.00;;;5.60
20058;BMP180;10189;49.546;7.906;2023-03-05T06:16:18;98284.00;;;5.60
20058;BMP180;10189;49.546;7.906;2023-03-05T06:18:44;98293.00;;;5.50
20058;BMP180;10189;49.546;7.906;2023-03-05T06:21:13;98294.00;;;5.50
20058;BMP180;10189;49.546;7.906;2023-03-05T06:23:40;98293.00;;;5.50
20058;BMP180;10189;49.546;7.906;2023-03-05T06:26:09;98283.00;;;5.60
20058;BMP180;10189;49.546;7.906;2023-03-05T06:28:36;98285.00;;;5.60
20058;BMP180;10189;49.546;7.906;2023-03-05T06:31:09;98288.00;;;5.60
20058;BMP180;10189;49.546;7.906;2023-03-05T06:33:36;98288.00;;;5.60
20058;BMP180;10189;49.546;7.906;2023-03-05T06:36:06;98287.00;;;5.60
20058;BMP180;10189;49.546;7.906;2023-03-05T06:38:33;98298.00;;;5.60
20058;BMP180;10189;49.546;7.906;2023-03-05T06:41:06;98295.00;;;5.70
20058;BMP180;10189;49.546;7.906;2023-03-05T06:43:35;98295.00;;;5.80
20058;BMP180;10189;49.546;7.906;2023-03-05T06:48:43;98292.00;;;5.80
20058;BMP180;10189;49.546;7.906;2023-03-05T06:51:23;98289.00;;;5.90
20058;BMP180;10189;49.546;7.906;2023-03-05T06:53:50;98294.00;;;5.90
20058;BMP180;10189;49.546;7.906;2023-03-05T06:56:19;98295.00;;;5.90
20058;BMP180;10189;49.546;7.906;2023-03-05T06:58:47;98294.00;;;5.90
20058;BMP180;10189;49.546;7.906;2023-03-05T07:01:17;98298.00;;;5.90
20058;BMP180;10189;49.546;7.906;2023-03-05T07:03:43;98293.00;;;5.90
20058;BMP180;10189;49.546;7.906;2023-03-05T07:06:14;98287.00;;;6.00
20058;BMP180;10189;49.546;7.906;2023-03-05T07:08:41;98292.00;;;5.90
20058;BMP180;10189;49.546;7.906;2023-03-05T07:11:16;98290.00;;;5.90
20058;BMP180;10189;49.546;7.906;2023-03-05T07:13:43;98294.00;;;6.00
20058;BMP180;10189;49.546;7.906;2023-03-05T07:16:17;98283.00;;;6.00
20058;BMP180;10189;49.546;7.906;2023-03-05T07:18:43;98283.00;;;6.20
20058;BMP180;10189;49.546;7.906;2023-03-05T07:21:15;98269.00;;;6.20
20058;BMP180;10189;49.546;7.906;2023-03-05T07:23:41;98274.00;;;6.30
20058;BMP180;10189;49.546;7.906;2023-03-05T07:26:07;98263.00;;;6.30
20058;BMP180;10189;49.546;7.906;2023-03-05T07:28:34;98269.00;;;6.30
20058;BMP180;10189;49.546;7.906;2023-03-05T07:31:04;98259.00;;;6.40
20058;BMP180;10189;49.546;7.906;2023-03-05T07:33:31;98252.00;;;6.50
20058;BMP180;10189;49.546;7.906;2023-03-05T07:35:58;98252.00;;;6.50
20058;BMP180;10189;49.546;7.906;2023-03-05T07:38:24;98249.00;;;6.50
20058;BMP180;10189;49.546;7.906;2023-03-05T07:40:50;98247.00;;;6.50
20058;BMP180;10189;49.546;7.906;2023-03-05T07:43:16;98253.00;;;6.50
20058;BMP180;10189;49.546;7.906;2023-03-05T07:45:44;98268.00;;;6.40
20058;BMP180;10189;49.546;7.906;2023-03-05T07:48:16;98259.00;;;6.40
20058;BMP180;10189;49.546;7.906;2023-03-05T07:50:46;98268.00;;;6.50
20058;BMP180;10189;49.546;7.906;2023-03-05T07:53:12;98256.00;;;6.40
20058;BMP180;10189;49.546;7.906;2023-03-05T07:55:46;98255.00;;;6.30
20058;BMP180;10189;49.546;7.906;2023-03-05T07:58:13;98261.00;;;6.40
20058;BMP180;10189;49.546;7.906;2023-03-05T08:00:39;98257.00;;;6.40
20058;BMP180;10189;49.546;7.906;2023-03-05T08:03:05;98251.00;;;6.50
20058;BMP180;10189;49.546;7.906;2023-03-05T08:05:32;98257.00;;;6.40
20058;BMP180;10189;49.546;7.906;2023-03-05T08:07:58;98246.00;;;6.50
20058;BMP180;10189;49.546;7.906;2023-03-05T08:10:24;98247.00;;;6.60
20058;BMP180;10189;49.546;7.906;2023-03-05T08:12:50;98248.00;;;6.70
20058;BMP180;10189;49.546;7.906;2023-03-05T08:15:16;98241.00;;;6.70
20058;BMP180;10189;49.546;7.906;2023-03-05T08:17:42;98244.00;;;6.60
20058;BMP180;10189;49.546;7.906;2023-03-05T08:20:09;98252.00;;;6.70
20058;BMP180;10189;49.546;7.906;2023-03-05T08:22:38;98258.00;;;6.80
20058;BMP180;10189;49.546;7.906;2023-03-05T08:25:05;98243.00;;;6.90
20058;BMP180;10189;49.546;7.906;2023-03-05T08:27:32;98241.00;;;6.90
20058;BMP180;10189;49.546;7.906;2023-03-05T08:30:00;98240.00;;;6.80
20058;BMP180;10189;49.546;7.906;2023-03-05T08:32:26;98234.00;;;6.90
20058;BMP180;10189;49.546;7.906;2023-03-05T08:34:56;98245.00;;;6.80
20058;BMP180;10189;49.546;7.906;2023-03-05T08:37:24;98238.00;;;6.80
20058;BMP180;10189;49.546;7.906;2023-03-05T08:39:50;98229.00;;;6.90
20058;BMP180;10189;49.546;7.906;2023-03-05T08:42:16;98234.00;;;6.90
20058;BMP180;10189;49.546;7.906;2023-03-05T08:44:42;98238.00;;;6.90
20058;BMP180;10189;49.546;7.906;2023-03-05T08:47:08;98231.00;;;6.80
20058;BMP180;10189;49.546;7.906;2023-03-05T08:49:33;98244.00;;;6.70
20058;BMP180;10189;49.546;7.906;2023-03-05T08:51:59;98233.00;;;6.60
20058;BMP180;10189;49.546;7.906;2023-03-05T08:54:25;98241.00;;;6.60
20058;BMP180;10189;49.546;7.906;2023-03-05T08:56:51;98235.00;;;6.70
20058;BMP180;10189;49.546;7.906;2023-03-05T08:59:17;98232.00;;;6.70
20058;BMP180;10189;49.546;7.906;2023-03-05T09:01:43;98216.00;;;6.80
20058;BMP180;10189;49.546;7.906;2023-03-05T09:04:09;98229.00;;;6.70
20058;BMP180;10189;49.546;7.906;2023-03-05T09:06:35;98238.00;;;6.70
20058;BMP180;10189;49.546;7.906;2023-03-05T09:09:06;98221.00;;;6.90
20058;BMP180;10189;49.546;7.906;2023-03-05T09:11:33;98212.00;;;6.80
20058;BMP180;10189;49.546;7.906;2023-03-05T09:14:05;98224.00;;;6.90
20058;BMP180;10189;49.546;7.906;2023-03-05T09:16:31;98213.00;;;6.70
20058;BMP180;10189;49.546;7.906;2023-03-05T09:18:58;98209.00;;;6.90
20058;BMP180;10189;49.546;7.906;2023-03-05T09:21:25;98202.00;;;7.00
20058;BMP180;10189;49.546;7.906;2023-03-05T09:23:51;98206.00;;;7.10
20058;BMP180;10189;49.546;7.906;2023-03-05T09:26:17;98186.00;;;7.30
20058;BMP180;10189;49.546;7.906;2023-03-05T09:28:45;98196.00;;;7.50
20058;BMP180;10189;49.546;7.906;2023-03-05T09:31:11;98188.00;;;7.70
20058;BMP180;10189;49.546;7.906;2023-03-05T09:33:38;98184.00;;;7.60
20058;BMP180;10189;49.546;7.906;2023-03-05T09:38:43;98186.00;;;7.70
20058;BMP180;10189;49.546;7.906;2023-03-05T09:46:55;98171.00;;;8.00
20058;BMP180;10189;49.546;7.906;2023-03-05T09:49:42;98163.00;;;8.10
20058;BMP180;10189;49.546;7.906;2023-03-05T09:52:44;98165.00;;;8.00
20058;BMP180;10189;49.546;7.906;2023-03-05T09:55:28;98162.00;;;8.10
20058;BMP180;10189;49.546;7.906;2023-03-05T09:58:03;98163.00;;;8.10
20058;BMP180;10189;49.546;7.906;2023-03-05T10:00:49;98162.00;;;8.10
20058;BMP180;10189;49.546;7.906;2023-03-05T10:03:41;98155.00;;;8.10
20058;BMP180;10189;49.546;7.906;2023-03-05T10:06:33;98169.00;;;8.00
20058;BMP180;10189;49.546;7.906;2023-03-05T10:09:12;98154.00;;;7.80
20058;BMP180;10189;49.546;7.906;2023-03-05T10:11:56;98165.00;;;7.60
20058;BMP180;10189;49.546;7.906;2023-03-05T10:14:42;98162.00;;;7.70
20058;BMP180;10189;49.546;7.906;2023-03-05T10:26:04;98143.00;;;7.60
20058;BMP180;10189;49.546;7.906;2023-03-05T10:37:51;98144.00;;;7.70
20058;BMP180;10189;49.546;7.906;2023-03-05T10:40:31;98147.00;;;7.80
20058;BMP180;10189;49.546;7.906;2023-03-05T10:43:10;98139.00;;;8.00
20058;BMP180;10189;49.546;7.906;2023-03-05T10:45:46;98141.00;;;8.00
20058;BMP180;10189;49.546;7.906;2023-03-05T10:48:41;98131.00;;;8.20
20058;BMP180;10189;49.546;7.906;2023-03-05T10:51:35;98139.00;;;8.20
20058;BMP180;10189;49.546;7.906;2023-03-05T10:54:27;98130.00;;;8.10
20058;BMP180;10189;49.546;7.906;2023-03-05T11:00:22;98133.00;;;7.60
20058;BMP180;10189;49.546;7.906;2023-03-05T11:03:04;98125.00;;;7.50
20058;BMP180;10189;49.546;7.906;2023-03-05T11:05:44;98118.00;;;7.70
20058;BMP180;10189;49.546;7.906;2023-03-05T11:08:35;98126.00;;;7.90
20058;BMP180;10189;49.546;7.906;2023-03-05T11:11:16;98121.00;;;8.00
20058;BMP180;10189;49.546;7.906;2023-03-05T11:13:56;98115.00;;;8.10
20058;BMP180;10189;49.546;7.906;2023-03-05T11:16:30;98121.00;;;7.80
20058;BMP180;10189;49.546;7.906;2023-03-05T11:19:24;98121.00;;;7.70
20058;BMP180;10189;49.546;7.906;2023-03-05T11:22:17;98115.00;;;7.70
20058;BMP180;10189;49.546;7.906;2023-03-05T11:25:03;98113.00;;;7.70
20058;BMP180;10189;49.546;7.906;2023-03-05T11:27:34;98111.00;;;7.80
20058;BMP180;10189;49.546;7.906;2023-03-05T11:30:01;98105.00;;;8.10
20058;BMP180;10189;49.546;7.906;2023-03-05T11:32:28;98109.00;;;7.70
20058;BMP180;10189;49.546;7.906;2023-03-05T11:34:55;98105.00;;;7.80
20058;BMP180;10189;49.546;7.906;2023-03-05T11:37:30;98103.00;;;7.80
20058;BMP180;10189;49.546;7.906;2023-03-05T11:40:19;98103.00;;;8.00
20058;BMP180;10189;49.546;7.906;2023-03-05T11:42:56;98099.00;;;8.10
20058;BMP180;10189;49.546;7.906;2023-03-05T11:45:23;98095.00;;;7.90
20058;BMP180;10189;49.546;7.906;2023-03-05T11:47:53;98095.00;;;8.00
20058;BMP180;10189;49.546;7.906;2023-03-05T11:50:27;98089.00;;;7.70
20058;BMP180;10189;49.546;7.906;2023-03-05T11:52:59;98091.00;;;7.50
20058;BMP180;10189;49.546;7.906;2023-03-05T11:58:40;98089.00;;;7.50
20058;BMP180;10189;49.546;7.906;2023-03-05T12:01:31;98080.00;;;7.60
20058;BMP180;10189;49.546;7.906;2023-03-05T12:03:59;98084.00;;;7.60
20058;BMP180;10189;49.546;7.906;2023-03-05T12:06:36;98083.00;;;7.70
20058;BMP180;10189;49.546;7.906;2023-03-05T12:09:40;98071.00;;;7.40
20058;BMP180;10189;49.546;7.906;2023-03-05T12:23:50;98055.00;;;7.40
20058;BMP180;10189;49.546;7.906;2023-03-05T12:26:17;98043.00;;;7.70
20058;BMP180;10189;49.546;7.906;2023-03-05T12:31:37;98039.00;;;7.60
20058;BMP180;10189;49.546;7.906;2023-03-05T12:40:00;98040.00;;;7.40
20058;BMP180;10189;49.546;7.906;2023-03-05T12:48:32;98013.00;;;7.80
20058;BMP180;10189;49.546;7.906;2023-03-05T12:53:18;98012.00;;;7.50
20058;BMP180;10189;49.546;7.906;2023-03-05T12:55:58;98008.00;;;7.50
20058;BMP180;10189;49.546;7.906;2023-03-05T12:58:52;97999.00;;;7.30
20058;BMP180;10189;49.546;7.906;2023-03-05T13:01:37;98008.00;;;7.40
20058;BMP180;10189;49.546;7.906;2023-03-05T13:04:31;97992.00;;;7.40
20058;BMP180;10189;49.546;7.906;2023-03-05T13:07:10;97999.00;;;7.40
20058;BMP180;10189;49.546;7.906;2023-03-05T13:09:38;97992.00;;;7.40
20058;BMP180;10189;49.546;7.906;2023-03-05T13:12:12;97986.00;;;7.40
20058;BMP180;10189;49.546;7.906;2023-03-05T13:14:47;97978.00;;;7.40
20058;BMP180;10189;49.546;7.906;2023-03-05T13:17:31;97986.00;;;7.40
20058;BMP180;10189;49.546;7.906;2023-03-05T13:20:00;97980.00;;;7.40
20058;BMP180;10189;49.546;7.906;2023-03-05T13:22:27;97979.00;;;7.60
20058;BMP180;10189;49.546;7.906;2023-03-05T13:25:15;97977.00;;;7.70
20058;BMP180;10189;49.546;7.906;2023-03-05T13:27:42;97965.00;;;7.80
20058;BMP180;10189;49.546;7.906;2023-03-05T13:30:26;97970.00;;;7.70
20058;BMP180;10189;49.546;7.906;2023-03-05T13:33:00;97973.00;;;7.70
20058;BMP180;10189;49.546;7.906;2023-03-05T13:35:31;97955.00;;;7.80
20058;BMP180;10189;49.546;7.906;2023-03-05T13:37:57;97952.00;;;7.90
20058;BMP180;10189;49.546;7.906;2023-03-05T13:40:30;97951.00;;;7.50
20058;BMP180;10189;49.546;7.906;2023-03-05T13:43:16;97959.00;;;7.50
20058;BMP180;10189;49.546;7.906;2023-03-05T13:45:53;97945.00;;;7.70
20058;BMP180;10189;49.546;7.906;2023-03-05T13:48:19;97956.00;;;7.60
20058;BMP180;10189;49.546;7.906;2023-03-05T13:50:45;97957.00;;;7.40
20058;BMP180;10189;49.546;7.906;2023-03-05T13:53:31;97947.00;;;7.30
20058;BMP180;10189;49.546;7.906;2023-03-05T13:56:04;97955.00;;;7.30
20058;BMP180;10189;49.546;7.906;2023-03-05T14:01:39;97945.00;;;7.30
20058;BMP180;10189;49.546;7.906;2023-03-05T14:04:33;97947.00;;;7.30
20058;BMP180;10189;49.546;7.906;2023-03-05T14:07:06;97939.00;;;7.20
20058;BMP180;10189;49.546;7.906;2023-03-05T14:12:38;97930.00;;;7.20
20058;BMP180;10189;49.546;7.906;2023-03-05T14:15:34;97926.00;;;7.30
20058;BMP180;10189;49.546;7.906;2023-03-05T14:18:18;97916.00;;;7.30
20058;BMP180;10189;49.546;7.906;2023-03-05T14:21:10;97916.00;;;7.40
20058;BMP180;10189;49.546;7.906;2023-03-05T14:23:51;97907.00;;;7.40
20058;BMP180;10189;49.546;7.906;2023-03-05T14:26:57;97895.00;;;7.60
20058;BMP180;10189;49.546;7.906;2023-03-05T14:29:28;97899.00;;;7.70
20058;BMP180;10189;49.546;7.906;2023-03-05T14:32:27;97890.00;;;7.80
20058;BMP180;10189;49.546;7.906;2023-03-05T14:35:02;97886.00;;;7.80
20058;BMP180;10189;49.546;7.906;2023-03-05T14:37:40;97883.00;;;8.00
20058;BMP180;10189;49.546;7.906;2023-03-05T14:40:30;97862.00;;;8.10
20058;BMP180;10189;49.546;7.906;2023-03-05T14:43:00;97864.00;;;8.20
20058;BMP180;10189;49.546;7.906;2023-03-05T14:45:37;97864.00;;;8.30
20058;BMP180;10189;49.546;7.906;2023-03-05T14:48:06;97853.00;;;8.40
20058;BMP180;10189;49.546;7.906;2023-03-05T14:50:45;97858.00;;;8.40
20058;BMP180;10189;49.546;7.906;2023-03-05T14:53:37;97858.00;;;8.60
20058;BMP180;10189;49.546;7.906;2023-03-05T14:56:25;97843.00;;;8.80
20058;BMP180;10189;49.546;7.906;2023-03-05T14:58:53;97836.00;;;9.00
20058;BMP180;10189;49.546;7.906;2023-03-05T15:01:20;97818.00;;;9.10
20058;BMP180;10189;49.546;7.906;2023-03-05T15:03:46;97820.00;;;9.20
20058;BMP180;10189;49.546;7.906;2023-03-05T15:06:35;97820.00;;;9.20
20058;BMP180;10189;49.546;7.906;2023-03-05T15:09:04;97818.00;;;9.00
20058;BMP180;10189;49.546;7.906;2023-03-05T15:11:30;97825.00;;;8.90
20058;BMP180;10189;49.546;7.906;2023-03-05T15:13:57;97811.00;;;9.10
20058;BMP180;10189;49.546;7.906;2023-03-05T15:16:23;97812.00;;;8.90
20058;BMP180;10189;49.546;7.906;2023-03-05T15:18:49;97815.00;;;8.80
20058;BMP180;10189;49.546;7.906;2023-03-05T15:21:16;97805.00;;;8.90
20058;BMP180;10189;49.546;7.906;2023-03-05T15:23:42;97802.00;;;8.80
20058;BMP180;10189;49.546;7.906;2023-03-05T15:26:13;97793.00;;;8.80
20058;BMP180;10189;49.546;7.906;2023-03-05T15:28:41;97802.00;;;8.70
20058;BMP180;10189;49.546;7.906;2023-03-05T15:31:08;97798.00;;;8.60
20058;BMP180;10189;49.546;7.906;2023-03-05T15:33:34;97794.00;;;8.80
20058;BMP180;10189;49.546;7.906;2023-03-05T15:36:01;97783.00;;;8.60
20058;BMP180;10189;49.546;7.906;2023-03-05T15:38:27;97788.00;;;8.50
20058;BMP180;10189;49.546;7.906;2023-03-05T15:40:53;97786.00;;;8.20
20058;BMP180;10189;49.546;7.906;2023-03-05T15:43:20;97785.00;;;8.30
20058;BMP180;10189;49.546;7.906;2023-03-05T15:45:46;97785.00;;;8.10
20058;BMP180;10189;49.546;7.906;2023-03-05T15:48:13;97780.00;;;8.10
20058;BMP180;10189;49.546;7.906;2023-03-05T15:50:41;97775.00;;;8.00
20058;BMP180;10189;49.546;7.906;2023-03-05T15:53:08;97772.00;;;7.90
20058;BMP180;10189;49.546;7.906;2023-03-05T15:55:43;97767.00;;;7.80
20058;BMP180;10189;49.546;7.906;2023-03-05T15:58:14;97762.00;;;7.70